Time;durP1;ratioP1;P1;durP2;ratioP2;P2;SDS_P1;SDS_P2;PMS_P1;PMS_P2;Temp;Humidity;BMP_temperature;BMP_pressure;BME280_temperature;BME280_humidity;BME280_pressure;Samples;Min_cycle;Max_cycle;Signal;HPM_P1;HPM_P2
2022/03/12 00:01:47;;;;;;;;;;;;;;;-1.63;43.08;102535.50;1676262;85;20228;-79
2022/03/12 00:04:14;;;;;;;;;;;;;;;-1.63;43.11;102535.50;1676194;85;20157;-79
2022/03/12 00:06:40;;;;;;;;;;;;;;;-1.65;43.14;102530.33;1664503;85;20155;-79
2022/03/12 00:09:06;;;;;;;;;;;;;;;-1.64;43.13;102532.47;1652175;85;20489;-79
2022/03/12 00:11:36;;;;;;;;;;;;;;;-1.64;43.17;102528.28;1674972;85;20133;-79
2022/03/12 00:14:03;;;;;;;;;;;;;;;-1.64;43.14;102526.13;1678344;84;20161;-79
2022/03/12 00:16:30;;;;;;;;;;;;;;;-1.64;43.17;102523.20;1674829;85;20504;-79
2022/03/12 00:18:58;;;;;;;;;;;;;;;-1.66;43.14;102524.77;1696471;83;20139;-78
2022/03/12 00:21:26;;;;;;;;;;;;;;;-1.69;43.14;102524.18;1695096;82;20169;-78
2022/03/12 00:23:56;;;;;;;;;;;;;;;-1.70;43.13;102524.08;1699738;84;20539;-78
2022/03/12 00:26:23;;;;;;;;;;;;;;;-1.72;43.13;102521.84;1697820;84;20181;-79
2022/03/12 00:28:48;;;;;;;;;;;;;;;-1.75;43.15;102522.91;1689526;83;20157;-78
2022/03/12 00:31:14;;;;;;;;;;;;;;;-1.77;43.16;102524.47;1698619;84;20232;-78
2022/03/12 00:33:40;;;;;;;;;;;;;;;-1.80;43.16;102521.73;1698040;84;20855;-78
2022/03/12 00:36:07;;;;;;;;;;;;;;;-1.82;43.16;102520.37;1699560;83;20523;-78
2022/03/12 00:38:33;;;;;;;;;;;;;;;-1.86;43.20;102517.14;1688899;84;20576;-78
2022/03/12 00:41:02;;;;;;;;;;;;;;;-1.85;43.25;102520.17;1700889;84;20122;-79
2022/03/12 00:43:27;;;;;;;;;;;;;;;-1.86;43.22;102517.14;1698813;83;20141;-79
2022/03/12 00:45:53;;;;;;;;;;;;;;;-1.87;43.26;102520.45;1698167;84;21545;-79
2022/03/12 00:48:34;;;;;;;;;;;;;;;;;;;;;
2022/03/12 00:50:49;;;;;;;;;;;;;;;-1.90;43.26;102521.91;1671899;84;20486;-78
2022/03/12 00:53:15;;;;;;;;;;;;;;;-1.91;43.31;102514.70;1687298;84;20411;-78
2022/03/12 00:55:41;;;;;;;;;;;;;;;-1.93;43.31;102521.72;1692688;84;20216;-79
2022/03/12 00:58:07;;;;;;;;;;;;;;;-1.98;43.32;102521.80;1701005;84;20145;-78
2022/03/12 01:00:34;;;;;;;;;;;;;;;-2.01;43.35;102525.02;1684361;84;20244;-78
2022/03/12 01:03:01;;;;;;;;;;;;;;;-2.03;43.37;102518.58;1675382;85;20156;-79
2022/03/12 01:05:47;;;;;;;;;;;;;;;-2.04;43.43;102524.42;1682580;84;20184;-79
2022/03/12 01:08:14;;;;;;;;;;;;;;;-2.05;43.39;102520.52;1687639;84;20153;-79
2022/03/12 01:10:41;;;;;;;;;;;;;;;-2.11;43.35;102515.97;1684292;84;20172;-79
2022/03/12 01:13:08;;;;;;;;;;;;;;;-2.14;43.42;102517.42;1700584;84;20445;-79
2022/03/12 01:15:34;;;;;;;;;;;;;;;-2.16;43.44;102522.77;1702508;84;20138;-79
2022/03/12 01:18:01;;;;;;;;;;;;;;;-2.19;43.46;102522.19;1701920;82;20444;-79
2022/03/12 01:20:27;;;;;;;;;;;;;;;-2.22;43.47;102520.72;1689742;84;20588;-79
2022/03/12 01:22:55;;;;;;;;;;;;;;;-2.24;43.48;102520.12;1700559;84;20146;-79
2022/03/12 01:25:20;;;;;;;;;;;;;;;-2.28;43.46;102516.51;1700438;84;20153;-78
2022/03/12 01:27:47;;;;;;;;;;;;;;;-2.30;43.46;102519.72;1696416;84;20176;-78
2022/03/12 01:30:13;;;;;;;;;;;;;;;-2.33;43.45;102522.92;1674137;84;20177;-78
2022/03/12 01:32:39;;;;;;;;;;;;;;;-2.35;43.53;102524.09;1701455;84;20161;-78
2022/03/12 01:35:07;;;;;;;;;;;;;;;-2.33;43.53;102521.66;1699261;84;20185;-78
2022/03/12 01:37:33;;;;;;;;;;;;;;;-2.31;43.55;102521.76;1690487;84;20183;-78
2022/03/12 01:39:59;;;;;;;;;;;;;;;-2.28;43.56;102519.43;1693589;84;20188;-78
2022/03/12 01:42:27;;;;;;;;;;;;;;;-2.27;43.55;102519.92;1692210;84;20201;-78
2022/03/12 01:44:53;;;;;;;;;;;;;;;-2.25;43.56;102519.24;1698588;84;20228;-78
2022/03/12 01:47:20;;;;;;;;;;;;;;;-2.24;43.56;102515.94;1698914;84;20639;-78
2022/03/12 01:49:48;;;;;;;;;;;;;;;-2.23;43.56;102511.36;1685524;84;20471;-78
2022/03/12 01:52:14;;;;;;;;;;;;;;;-2.22;43.57;102512.23;1700777;84;20749;-78
2022/03/12 01:54:44;;;;;;;;;;;;;;;-2.21;43.61;102507.27;1690432;84;20812;-79
2022/03/12 01:57:09;;;;;;;;;;;;;;;-2.21;43.61;102497.52;1697927;84;20473;-79
2022/03/12 01:59:36;;;;;;;;;;;;;;;-2.20;43.62;102504.34;1699695;84;20547;-79
2022/03/12 02:02:08;;;;;;;;;;;;;;;-2.21;43.68;102504.73;1694793;84;20323;-78
2022/03/12 02:04:31;;;;;;;;;;;;;;;-2.22;43.70;102497.03;1699145;83;20314;-78
2022/03/12 02:07:00;;;;;;;;;;;;;;;-2.24;43.68;102496.05;1697056;84;20783;-78
2022/03/12 02:09:26;;;;;;;;;;;;;;;-2.24;43.71;102494.78;1674043;84;20178;-79
2022/03/12 02:11:53;;;;;;;;;;;;;;;-2.25;43.74;102491.77;1671593;85;20248;-78
2022/03/12 02:14:23;;;;;;;;;;;;;;;-2.27;43.71;102486.59;1679359;84;21046;-78
2022/03/12 02:16:56;;;;;;;;;;;;;;;-2.28;43.74;102492.44;1687728;84;20281;-79
2022/03/12 02:19:27;;;;;;;;;;;;;;;-2.29;43.79;102491.07;1674440;84;20195;-79
2022/03/12 02:22:04;;;;;;;;;;;;;;;-2.29;43.79;102484.73;1674868;85;20171;-79
2022/03/12 02:24:34;;;;;;;;;;;;;;;-2.29;43.81;102491.95;1703787;83;20070;-79
2022/03/12 02:27:01;;;;;;;;;;;;;;;-2.28;43.80;102489.91;1684911;85;20151;-79
2022/03/12 02:29:30;;;;;;;;;;;;;;;-2.29;43.83;102485.62;1675080;85;20179;-79
2022/03/12 02:32:00;;;;;;;;;;;;;;;-2.30;43.85;102480.06;1671076;84;20119;-79
2022/03/12 02:34:30;;;;;;;;;;;;;;;-2.29;43.86;102480.94;1698647;84;20118;-79
2022/03/12 02:36:57;;;;;;;;;;;;;;;-2.32;43.82;102476.94;1699065;84;20129;-79
2022/03/12 02:39:28;;;;;;;;;;;;;;;-2.36;43.86;102476.73;1687365;84;20559;-79
2022/03/12 02:41:52;;;;;;;;;;;;;;;-2.37;43.88;102478.77;1693834;84;20169;-79
2022/03/12 02:44:21;;;;;;;;;;;;;;;-2.40;43.90;102479.84;1693462;84;20263;-79
2022/03/12 02:47:14;;;;;;;;;;;;;;;-2.42;43.89;102477.59;1704465;84;20097;-78
2022/03/12 02:49:44;;;;;;;;;;;;;;;-2.47;43.86;102478.94;1704227;84;20133;-78
2022/03/12 02:52:10;;;;;;;;;;;;;;;-2.52;43.88;102475.61;1692599;83;20191;-78
2022/03/12 02:54:36;;;;;;;;;;;;;;;-2.55;43.94;102474.14;1673161;84;20183;-78
2022/03/12 02:57:03;;;;;;;;;;;;;;;-2.59;43.92;102474.33;1673188;85;20210;-78
2022/03/12 02:59:29;;;;;;;;;;;;;;;-2.61;44.00;102477.56;1678805;84;20095;-78
2022/03/12 03:02:00;;;;;;;;;;;;;;;-2.62;43.96;102475.81;1701710;84;20299;-78
2022/03/12 03:04:24;;;;;;;;;;;;;;;-2.65;43.95;102477.75;1702537;83;20502;-78
2022/03/12 03:06:50;;;;;;;;;;;;;;;-2.68;44.02;102473.73;1694353;84;20137;-78
2022/03/12 03:09:16;;;;;;;;;;;;;;;-2.70;44.00;102474.03;1675322;84;20092;-78
2022/03/12 03:11:44;;;;;;;;;;;;;;;-2.73;44.07;102477.62;1699294;84;20148;-78
2022/03/12 03:14:12;;;;;;;;;;;;;;;-2.73;44.13;102476.35;1702775;84;20102;-78
2022/03/12 03:16:39;;;;;;;;;;;;;;;-2.76;44.15;102479.55;1700427;84;20158;-78
2022/03/12 03:19:04;;;;;;;;;;;;;;;-2.78;44.18;102474.77;1677374;84;20159;-78
2022/03/12 03:21:32;;;;;;;;;;;;;;;-2.81;44.19;102473.69;1696015;84;20223;-78
2022/03/12 03:24:00;;;;;;;;;;;;;;;-2.84;44.20;102470.56;1702312;84;20133;-79
2022/03/12 03:26:42;;;;;;;;;;;;;;;-2.86;44.22;102469.97;1702260;84;20090;-78
2022/03/12 03:29:08;;;;;;;;;;;;;;;-2.89;44.19;102473.17;1676434;84;20192;-78
2022/03/12 03:31:35;;;;;;;;;;;;;;;-2.90;44.29;102468.88;1698209;84;20177;-78
2022/03/12 03:34:01;;;;;;;;;;;;;;;-2.90;44.29;102469.27;1699792;84;20201;-80
2022/03/12 03:36:27;;;;;;;;;;;;;;;-2.92;44.26;102466.63;1689473;84;20205;-79
2022/03/12 03:38:53;;;;;;;;;;;;;;;-2.95;44.25;102468.95;1683305;84;20217;-79
2022/03/12 03:41:19;;;;;;;;;;;;;;;-2.95;44.35;102465.55;1694974;84;20180;-78
2022/03/12 03:43:47;;;;;;;;;;;;;;;-2.95;44.36;102459.22;1694466;84;20170;-78
2022/03/12 03:46:19;;;;;;;;;;;;;;;-2.96;44.35;102461.25;1692116;84;20137;-78
2022/03/12 03:48:50;;;;;;;;;;;;;;;-2.98;44.29;102454.83;1701836;84;20170;-78
2022/03/12 03:51:16;;;;;;;;;;;;;;;-3.00;44.41;102448.78;1692205;84;20135;-78
2022/03/12 03:53:43;;;;;;;;;;;;;;;-3.00;44.44;102445.86;1681270;84;20138;-78
2022/03/12 03:56:16;;;;;;;;;;;;;;;-3.00;44.44;102443.72;1684404;84;20542;-78
2022/03/12 03:58:42;;;;;;;;;;;;;;;-2.96;44.46;102446.07;1697642;84;20181;-78
2022/03/12 04:01:12;;;;;;;;;;;;;;;-2.94;44.41;102440.73;1691043;84;20226;-78
2022/03/12 04:03:49;;;;;;;;;;;;;;;-2.93;44.50;102433.63;1699512;84;20193;-79
2022/03/12 04:06:17;;;;;;;;;;;;;;;-2.91;44.46;102434.22;1699227;84;20177;-78
2022/03/12 04:08:43;;;;;;;;;;;;;;;-2.87;44.45;102437.84;1700320;84;20129;-78
2022/03/12 04:11:14;;;;;;;;;;;;;;;-2.83;44.45;102446.13;1704745;82;20160;-78
2022/03/12 04:13:41;;;;;;;;;;;;;;;-2.80;44.49;102445.95;1699655;84;20185;-78
2022/03/12 04:16:07;;;;;;;;;;;;;;;-2.78;44.54;102443.13;1689944;83;20135;-78
2022/03/12 04:18:35;;;;;;;;;;;;;;;-2.77;44.51;102439.83;1685296;84;20169;-78
2022/03/12 04:21:03;;;;;;;;;;;;;;;-2.76;44.51;102435.25;1693344;84;20127;-78
2022/03/12 04:23:29;;;;;;;;;;;;;;;-2.75;44.51;102439.92;1691169;84;20180;-78
2022/03/12 04:25:57;;;;;;;;;;;;;;;-2.73;44.56;102433.31;1701477;83;20197;-78
2022/03/12 04:28:26;;;;;;;;;;;;;;;-2.71;44.52;102436.44;1686250;84;20239;-78
2022/03/12 04:30:55;;;;;;;;;;;;;;;-2.70;44.59;102431.86;1690367;84;20244;-78
2022/03/12 04:33:21;;;;;;;;;;;;;;;-2.67;44.58;102434.98;1697998;84;20127;-78
2022/03/12 04:35:48;;;;;;;;;;;;;;;-2.65;44.54;102433.83;1693835;84;20157;-78
2022/03/12 04:38:14;;;;;;;;;;;;;;;-2.64;44.57;102434.31;1704184;83;20404;-78
2022/03/12 04:40:43;;;;;;;;;;;;;;;-2.62;44.60;102427.70;1694830;83;20168;-78
2022/03/12 04:43:12;;;;;;;;;;;;;;;-2.61;44.59;102429.45;1704386;84;20177;-78
2022/03/12 04:45:40;;;;;;;;;;;;;;;-2.61;44.62;102428.19;1689927;84;20174;-78
2022/03/12 04:48:06;;;;;;;;;;;;;;;-2.61;44.61;102431.98;1697726;84;20185;-78
2022/03/12 04:50:33;;;;;;;;;;;;;;;-2.61;44.64;102433.25;1699118;84;20174;-78
2022/03/12 04:53:01;;;;;;;;;;;;;;;-2.61;44.65;102431.98;1688531;84;20240;-77
2022/03/12 04:55:28;;;;;;;;;;;;;;;-2.62;44.66;102430.23;1702729;83;20169;-77
2022/03/12 04:57:54;;;;;;;;;;;;;;;-2.64;44.65;102428.86;1684031;84;20101;-78
2022/03/12 05:00:29;;;;;;;;;;;;;;;-2.66;44.60;102430.41;1690420;84;20150;-78
2022/03/12 05:02:58;;;;;;;;;;;;;;;-2.64;44.66;102429.25;1706653;84;20158;-78
2022/03/12 05:05:26;;;;;;;;;;;;;;;-2.64;44.69;102427.59;1700166;84;20138;-78
2022/03/12 05:07:52;;;;;;;;;;;;;;;-2.68;44.68;102424.38;1702222;83;20149;-78
2022/03/12 05:10:18;;;;;;;;;;;;;;;-2.69;44.69;102421.34;1700492;83;20252;-78
2022/03/12 05:12:50;;;;;;;;;;;;;;;-2.71;44.71;102422.90;1704625;83;20271;-78
2022/03/12 05:15:17;;;;;;;;;;;;;;;-2.72;44.73;102422.41;1667311;84;20149;-78
2022/03/12 05:17:47;;;;;;;;;;;;;;;-2.72;44.75;102427.09;1702406;84;20098;-78
2022/03/12 05:20:18;;;;;;;;;;;;;;;-2.70;44.76;102425.92;1702817;83;20106;-78
2022/03/12 05:22:44;;;;;;;;;;;;;;;-2.69;44.77;102428.55;1690267;84;20096;-78
2022/03/12 05:25:11;;;;;;;;;;;;;;;-2.69;44.79;102427.67;1689802;84;20118;-78
2022/03/12 05:27:37;;;;;;;;;;;;;;;-2.69;44.85;102422.23;1687979;84;20855;-78
2022/03/12 05:30:05;;;;;;;;;;;;;;;-2.69;44.80;102418.43;1677889;84;20181;-77
2022/03/12 05:32:31;;;;;;;;;;;;;;;-2.67;44.83;102421.94;1701429;83;20157;-77
2022/03/12 05:34:57;;;;;;;;;;;;;;;-2.65;44.84;102420.77;1703537;82;20318;-77
2022/03/12 05:37:22;;;;;;;;;;;;;;;-2.61;44.90;102417.67;1701209;84;20161;-77
2022/03/12 05:39:52;;;;;;;;;;;;;;;-2.58;44.88;102422.02;1699800;83;20156;-77
2022/03/12 05:42:20;;;;;;;;;;;;;;;-2.53;44.93;102427.88;1700331;84;20097;-78
2022/03/12 05:44:46;;;;;;;;;;;;;;;-2.48;44.95;102424.39;1690268;83;20110;-77
2022/03/12 05:47:12;;;;;;;;;;;;;;;-2.43;44.94;102423.03;1696381;84;20124;-78
2022/03/12 05:49:38;;;;;;;;;;;;;;;-2.37;44.95;102423.44;1688519;84;20283;-77
2022/03/12 05:52:09;;;;;;;;;;;;;;;-2.31;45.00;102420.03;1700774;84;20142;-77
2022/03/12 05:54:36;;;;;;;;;;;;;;;-2.21;45.05;102416.44;1701007;83;20197;-77
2022/03/12 05:57:02;;;;;;;;;;;;;;;-2.11;45.12;102423.86;1701650;83;20235;-77
2022/03/12 05:59:29;;;;;;;;;;;;;;;-1.97;45.13;102422.17;1701229;83;20452;-77
2022/03/12 06:01:55;;;;;;;;;;;;;;;-1.81;45.14;102417.30;1700621;83;20177;-78
2022/03/12 06:04:27;;;;;;;;;;;;;;;-1.61;45.22;102416.87;1700372;83;20205;-78
2022/03/12 06:06:54;;;;;;;;;;;;;;;-1.38;45.28;102413.19;1697573;84;20177;-78
2022/03/12 06:09:20;;;;;;;;;;;;;;;-1.09;45.36;102412.03;1697447;84;20168;-78
2022/03/12 06:11:51;;;;;;;;;;;;;;;-0.79;45.32;102412.06;1692754;82;20230;-78
2022/03/12 06:14:15;;;;;;;;;;;;;;;-0.49;45.38;102406.19;1694138;84;20125;-78
2022/03/12 06:16:48;;;;;;;;;;;;;;;-0.14;45.44;102405.66;1698933;82;20213;-78
2022/03/12 06:19:11;;;;;;;;;;;;;;;0.21;45.48;102401.61;1697678;83;20129;-78
2022/03/12 06:21:37;;;;;;;;;;;;;;;0.55;45.42;102401.73;1683385;83;20254;-77
2022/03/12 06:24:03;;;;;;;;;;;;;;;0.84;45.41;102401.59;1708752;82;20181;-78
2022/03/12 06:26:35;;;;;;;;;;;;;;;1.15;45.49;102402.75;1703520;83;20425;-78
2022/03/12 06:28:57;;;;;;;;;;;;;;;1.40;45.49;102401.44;1691553;83;20196;-77
2022/03/12 06:31:23;;;;;;;;;;;;;;;1.64;45.54;102398.39;1696139;83;20185;-78
2022/03/12 06:33:49;;;;;;;;;;;;;;;1.86;45.46;102392.66;1697120;84;20179;-77
2022/03/12 06:36:15;;;;;;;;;;;;;;;2.04;45.63;102391.39;1698719;83;20141;-78
2022/03/12 06:38:41;;;;;;;;;;;;;;;2.18;45.56;102392.87;1699150;83;20189;-77
2022/03/12 06:41:07;;;;;;;;;;;;;;;2.37;45.48;102393.33;1698407;83;20176;-79
2022/03/12 06:43:33;;;;;;;;;;;;;;;2.57;45.61;102394.23;1698582;83;20372;-78
2022/03/12 06:46:05;;;;;;;;;;;;;;;2.76;45.62;102389.52;1699000;83;20185;-78
2022/03/12 06:48:32;;;;;;;;;;;;;;;2.91;45.67;102397.45;1702983;83;20450;-78
2022/03/12 06:50:58;;;;;;;;;;;;;;;3.07;45.67;102393.88;1696511;83;20162;-80
2022/03/12 06:53:24;;;;;;;;;;;;;;;3.21;45.77;102390.20;1697708;83;20318;-80
2022/03/12 06:55:50;;;;;;;;;;;;;;;3.28;45.78;102385.81;1697829;83;20195;-79
2022/03/12 06:58:15;;;;;;;;;;;;;;;3.44;45.86;102389.89;1697965;83;20291;-79
2022/03/12 07:00:41;;;;;;;;;;;;;;;3.61;46.01;102385.06;1697711;83;20212;-79
2022/03/12 07:03:10;;;;;;;;;;;;;;;3.80;45.82;102387.92;1707921;82;20110;-79
2022/03/12 07:05:36;;;;;;;;;;;;;;;3.94;46.04;102383.36;1704451;81;20150;-79
2022/03/12 07:08:02;;;;;;;;;;;;;;;4.01;45.70;102390.46;1700533;83;20134;-79
2022/03/12 07:10:30;;;;;;;;;;;;;;;4.19;46.01;102385.16;1700671;83;20208;-79
2022/03/12 07:12:55;;;;;;;;;;;;;;;4.38;45.94;102391.44;1695942;83;20730;-79
2022/03/12 07:15:29;;;;;;;;;;;;;;;4.50;45.75;102391.03;1697277;83;20105;-79
2022/03/12 07:17:55;;;;;;;;;;;;;;;4.58;45.83;102391.78;1693998;83;20137;-78
2022/03/12 07:20:21;;;;;;;;;;;;;;;4.68;45.84;102395.52;1686275;83;20122;-78
2022/03/12 07:22:48;;;;;;;;;;;;;;;4.80;45.75;102397.25;1702741;82;20093;-79
2022/03/12 07:25:14;;;;;;;;;;;;;;;4.94;45.58;102390.06;1700829;84;20102;-79
2022/03/12 07:27:41;;;;;;;;;;;;;;;5.05;45.77;102386.59;1701787;84;20105;-79
2022/03/12 07:30:08;;;;;;;;;;;;;;;5.19;46.06;102392.66;1702142;82;20123;-79
2022/03/12 07:32:35;;;;;;;;;;;;;;;5.30;45.94;102388.74;1687472;84;20108;-79
2022/03/12 07:35:02;;;;;;;;;;;;;;;5.49;45.88;102394.49;1699017;82;20118;-79
2022/03/12 07:37:28;;;;;;;;;;;;;;;5.64;45.84;102390.73;1702115;84;20113;-79
2022/03/12 07:39:55;;;;;;;;;;;;;;;5.82;45.64;102386.58;1702509;82;20109;-78
2022/03/12 07:42:21;;;;;;;;;;;;;;;5.96;45.86;102391.77;1701552;82;20118;-78
2022/03/12 07:44:47;;;;;;;;;;;;;;;6.08;46.23;102383.58;1705731;82;20211;-78
2022/03/12 07:47:13;;;;;;;;;;;;;;;6.09;45.85;102385.73;1688242;82;20166;-78
2022/03/12 07:49:38;;;;;;;;;;;;;;;6.17;46.07;102389.00;1686577;82;20234;-78
2022/03/12 07:52:06;;;;;;;;;;;;;;;6.24;45.93;102390.02;1693507;82;20225;-78
2022/03/12 07:54:33;;;;;;;;;;;;;;;6.35;45.99;102387.78;1687008;82;20111;-78
2022/03/12 07:56:59;;;;;;;;;;;;;;;6.48;45.98;102387.31;1686079;84;20141;-78
2022/03/12 07:59:26;;;;;;;;;;;;;;;6.55;46.02;102383.69;1703447;83;20132;-78
2022/03/12 08:01:52;;;;;;;;;;;;;;;6.65;45.77;102384.81;1693458;83;20088;-78
2022/03/12 08:04:18;;;;;;;;;;;;;;;6.61;46.10;102381.29;1687527;84;20230;-79
2022/03/12 08:06:44;;;;;;;;;;;;;;;6.65;46.00;102379.67;1700549;84;20109;-78
2022/03/12 08:09:10;;;;;;;;;;;;;;;6.73;46.43;102380.77;1703187;83;20394;-78
2022/03/12 08:11:36;;;;;;;;;;;;;;;6.77;46.21;102384.27;1689482;84;20828;-79
2022/03/12 08:14:09;;;;;;;;;;;;;;;6.73;46.18;102381.18;1674252;84;20167;-79
2022/03/12 08:16:36;;;;;;;;;;;;;;;6.65;46.20;102384.81;1668763;84;20133;-78
2022/03/12 08:19:05;;;;;;;;;;;;;;;6.51;45.92;102387.41;1696769;83;20109;-78
2022/03/12 08:21:31;;;;;;;;;;;;;;;6.48;45.93;102395.89;1696411;83;20107;-78
2022/03/12 08:23:58;;;;;;;;;;;;;;;6.46;45.27;102391.12;1693164;82;20125;-78
2022/03/12 08:26:24;;;;;;;;;;;;;;;6.49;45.86;102392.91;1695138;82;20129;-78
2022/03/12 08:28:49;;;;;;;;;;;;;;;6.48;45.82;102389.47;1696915;84;20168;-79
2022/03/12 08:31:15;;;;;;;;;;;;;;;6.45;45.59;102391.95;1685917;84;20282;-78
2022/03/12 08:33:45;;;;;;;;;;;;;;;6.43;45.17;102383.33;1681125;84;20107;-80
2022/03/12 08:36:11;;;;;;;;;;;;;;;6.35;45.54;102386.08;1703420;84;20156;-78
2022/03/12 08:38:38;;;;;;;;;;;;;;;6.31;45.62;102381.67;1705302;82;20127;-78
2022/03/12 08:41:06;;;;;;;;;;;;;;;6.28;45.15;102381.17;1717365;82;20127;-78
2022/03/12 08:43:33;;;;;;;;;;;;;;;6.29;45.52;102382.91;1721630;82;20127;-78
2022/03/12 08:46:05;;;;;;;;;;;;;;;6.31;45.29;102381.27;1712908;82;20108;-79
2022/03/12 08:48:31;;;;;;;;;;;;;;;6.33;45.29;102378.73;1708049;82;20102;-78
2022/03/12 08:50:57;;;;;;;;;;;;;;;6.24;44.73;102375.48;1709060;82;20109;-79
2022/03/12 08:53:23;;;;;;;;;;;;;;;6.14;44.91;102374.78;1697327;82;20133;-78
2022/03/12 08:55:49;;;;;;;;;;;;;;;6.08;44.76;102370.73;1697744;82;20148;-79
2022/03/12 08:58:15;;;;;;;;;;;;;;;5.95;44.87;102364.77;1696314;82;20114;-79
2022/03/12 09:00:42;;;;;;;;;;;;;;;5.83;44.77;102372.05;1701344;82;20150;-79
2022/03/12 09:03:09;;;;;;;;;;;;;;;5.69;44.84;102372.92;1702835;82;20423;-79
2022/03/12 09:05:35;;;;;;;;;;;;;;;5.50;44.67;102374.02;1691940;82;20176;-79
2022/03/12 09:08:02;;;;;;;;;;;;;;;5.31;43.59;102372.94;1709192;82;20148;-80
2022/03/12 09:10:28;;;;;;;;;;;;;;;5.07;44.31;102369.16;1699159;82;20106;-80
2022/03/12 09:12:54;;;;;;;;;;;;;;;4.87;44.15;102368.87;1688743;82;20153;-79
2022/03/12 09:15:24;;;;;;;;;;;;;;;4.79;44.03;102360.03;1682778;84;20186;-79
2022/03/12 09:17:52;;;;;;;;;;;;;;;4.79;44.32;102362.59;1696635;82;20091;-79
2022/03/12 09:20:19;;;;;;;;;;;;;;;4.79;43.79;102363.88;1694155;82;20131;-79
2022/03/12 09:22:45;;;;;;;;;;;;;;;4.79;44.07;102363.88;1687359;83;20179;-79
2022/03/12 09:25:12;;;;;;;;;;;;;;;4.80;44.01;102359.22;1698581;83;20130;-79
2022/03/12 09:27:40;;;;;;;;;;;;;;;4.82;43.97;102363.58;1694747;84;20134;-79
2022/03/12 09:30:08;;;;;;;;;;;;;;;4.88;43.75;102355.23;1692278;83;20132;-80
2022/03/12 09:32:34;;;;;;;;;;;;;;;4.93;43.76;102355.86;1682228;83;20621;-80
2022/03/12 09:35:01;;;;;;;;;;;;;;;4.97;43.75;102354.28;1689032;83;20096;-80
2022/03/12 09:37:26;;;;;;;;;;;;;;;5.03;43.11;102353.20;1696422;83;20402;-80
2022/03/12 09:39:52;;;;;;;;;;;;;;;5.11;43.38;102352.19;1697190;83;20226;-79
2022/03/12 09:42:18;;;;;;;;;;;;;;;5.17;43.24;102353.27;1698891;83;20157;-80
2022/03/12 09:44:44;;;;;;;;;;;;;;;5.21;42.73;102350.37;1709709;83;20693;-79
2022/03/12 09:47:10;;;;;;;;;;;;;;;5.23;42.78;102351.30;1693496;83;20685;-78
2022/03/12 09:49:36;;;;;;;;;;;;;;;5.24;43.13;102341.09;1694959;83;20163;-78
2022/03/12 09:52:04;;;;;;;;;;;;;;;5.30;43.19;102341.29;1698952;83;20109;-79
2022/03/12 09:54:30;;;;;;;;;;;;;;;5.38;43.01;102341.55;1681605;84;20108;-80
2022/03/12 09:56:56;;;;;;;;;;;;;;;5.42;43.12;102343.39;1704782;83;20110;-79
2022/03/12 09:59:22;;;;;;;;;;;;;;;5.46;42.81;102342.67;1696409;83;20137;-80
2022/03/12 10:01:48;;;;;;;;;;;;;;;5.48;42.68;102329.48;1697947;83;20153;-80
2022/03/12 10:04:14;;;;;;;;;;;;;;;5.53;42.89;102334.35;1699301;83;20627;-80
2022/03/12 10:06:40;;;;;;;;;;;;;;;5.58;42.93;102329.36;1699986;83;20267;-80
2022/03/12 10:09:06;;;;;;;;;;;;;;;5.63;42.62;102329.97;1692044;83;20105;-80
2022/03/12 10:11:36;;;;;;;;;;;;;;;5.70;42.33;102326.31;1688222;83;20543;-81
2022/03/12 10:14:02;;;;;;;;;;;;;;;5.77;42.65;102324.38;1703994;82;20114;-79
2022/03/12 10:16:29;;;;;;;;;;;;;;;5.84;42.43;102320.76;1699038;83;21212;-79
2022/03/12 10:18:56;;;;;;;;;;;;;;;5.91;42.75;102324.42;1695001;84;20130;-79
2022/03/12 10:21:23;;;;;;;;;;;;;;;5.99;42.10;102316.53;1690491;83;20090;-78
2022/03/12 10:23:48;;;;;;;;;;;;;;;6.09;41.74;102326.67;1695668;83;20110;-79
2022/03/12 10:26:15;;;;;;;;;;;;;;;6.14;42.43;102330.25;1697975;82;21607;-79
2022/03/12 10:28:41;;;;;;;;;;;;;;;6.17;42.37;102331.63;1696615;83;21171;-79
2022/03/12 10:31:07;;;;;;;;;;;;;;;6.23;41.79;102325.38;1697768;83;20184;-79
2022/03/12 10:33:33;;;;;;;;;;;;;;;6.31;42.11;102321.30;1688532;84;20110;-78
2022/03/12 10:36:16;;;;;;;;;;;;;;;6.41;42.45;102331.44;1699840;83;20106;-78
2022/03/12 10:38:48;;;;;;;;;;;;;;;6.47;42.45;102331.20;1716410;83;20499;-78
2022/03/12 10:41:15;;;;;;;;;;;;;;;6.52;42.28;102321.92;1719174;82;20455;-78
2022/03/12 10:43:54;;;;;;;;;;;;;;;6.59;42.13;102317.41;1701490;82;20093;-78
2022/03/12 10:46:27;;;;;;;;;;;;;;;6.68;41.87;102314.63;1699762;83;20110;-78
2022/03/12 10:49:00;;;;;;;;;;;;;;;6.77;41.61;102314.84;1693567;84;20710;-78
2022/03/12 10:51:27;;;;;;;;;;;;;;;6.79;41.28;102307.63;1698094;84;20751;-78
2022/03/12 10:54:06;;;;;;;;;;;;;;;6.84;41.60;102305.19;1699098;84;20155;-78
2022/03/12 10:56:43;;;;;;;;;;;;;;;6.88;40.80;102301.86;1694598;83;20587;-79
2022/03/12 10:59:21;;;;;;;;;;;;;;;6.93;41.67;102299.87;1695849;83;20109;-79
2022/03/12 11:01:51;;;;;;;;;;;;;;;6.93;41.28;102296.01;1692977;83;20221;-79
2022/03/12 11:04:19;;;;;;;;;;;;;;;6.97;41.96;102294.39;1695265;83;20342;-79
2022/03/12 11:06:46;;;;;;;;;;;;;;;6.97;41.00;102294.39;1696501;82;20441;-79
2022/03/12 11:09:18;;;;;;;;;;;;;;;7.03;40.59;102294.96;1695521;83;20546;-79
2022/03/12 11:11:44;;;;;;;;;;;;;;;7.08;41.81;102283.95;1699218;82;20449;-79
2022/03/12 11:14:20;;;;;;;;;;;;;;;7.14;41.51;102280.67;1697021;83;20449;-79
2022/03/12 11:16:52;;;;;;;;;;;;;;;7.20;41.34;102277.84;1697648;83;20097;-79
2022/03/12 11:19:37;;;;;;;;;;;;;;;7.23;41.36;102281.77;1697211;83;20110;-79
2022/03/12 11:21:52;;;;;;;;;;;;;;;7.29;41.30;102275.87;1695213;83;20416;-79
2022/03/12 11:24:23;;;;;;;;;;;;;;;7.37;40.13;102279.91;1693833;83;20085;-78
2022/03/12 11:26:55;;;;;;;;;;;;;;;7.43;40.86;102277.06;1691261;83;36682;-78
2022/03/12 11:29:23;;;;;;;;;;;;;;;7.48;40.95;102274.60;1682003;83;20129;-78
2022/03/12 11:31:52;;;;;;;;;;;;;;;7.53;41.19;102274.30;1687372;84;20720;-78
2022/03/12 11:34:23;;;;;;;;;;;;;;;7.57;40.71;102270.95;1689225;83;20101;-78
2022/03/12 11:36:59;;;;;;;;;;;;;;;7.59;40.57;102279.16;1696478;83;20429;-78
2022/03/12 11:39:31;;;;;;;;;;;;;;;7.67;40.84;102275.89;1696790;83;20086;-78
2022/03/12 11:42:06;;;;;;;;;;;;;;;7.70;40.73;102269.53;1699700;83;20133;-78
2022/03/12 11:44:33;;;;;;;;;;;;;;;7.77;40.67;102271.41;1695778;83;20138;-78
2022/03/12 11:46:59;;;;;;;;;;;;;;;7.81;40.51;102271.47;1695064;83;20145;-78
2022/03/12 11:49:25;;;;;;;;;;;;;;;7.87;40.79;102269.45;1696031;83;20475;-78
2022/03/12 11:51:52;;;;;;;;;;;;;;;7.90;40.44;102269.52;1680171;83;20301;-78
2022/03/12 11:54:21;;;;;;;;;;;;;;;7.91;40.32;102265.69;1672490;84;20107;-78
2022/03/12 11:56:47;;;;;;;;;;;;;;;7.94;40.76;102263.17;1695743;83;20141;-78
2022/03/12 11:59:12;;;;;;;;;;;;;;;8.01;39.81;102260.31;1694911;83;20772;-79
2022/03/12 12:01:41;;;;;;;;;;;;;;;8.10;39.88;102255.77;1695895;83;20148;-79
2022/03/12 12:04:07;;;;;;;;;;;;;;;8.12;39.95;102251.52;1696363;83;20105;-79
2022/03/12 12:06:34;;;;;;;;;;;;;;;8.15;39.91;102246.43;1687523;83;20109;-79
2022/03/12 12:09:02;;;;;;;;;;;;;;;8.22;40.12;102249.16;1697323;83;20117;-79
2022/03/12 12:11:31;;;;;;;;;;;;;;;8.29;39.85;102245.00;1699534;82;20102;-79
2022/03/12 12:13:58;;;;;;;;;;;;;;;8.33;39.79;102239.06;1692852;83;20102;-79
2022/03/12 12:16:25;;;;;;;;;;;;;;;8.38;40.03;102245.17;1695425;83;20429;-79
2022/03/12 12:18:52;;;;;;;;;;;;;;;8.40;39.83;102231.03;1697113;83;20130;-79
2022/03/12 12:21:18;;;;;;;;;;;;;;;8.40;39.89;102240.05;1695031;83;20142;-79
2022/03/12 12:23:46;;;;;;;;;;;;;;;8.39;40.07;102232.73;1698461;82;20295;-79
2022/03/12 12:26:13;;;;;;;;;;;;;;;8.41;40.00;102225.03;1701574;82;20121;-79
2022/03/12 12:28:52;;;;;;;;;;;;;;;8.46;40.07;102222.12;1698848;82;20105;-79
2022/03/12 12:31:25;;;;;;;;;;;;;;;8.51;39.74;102226.52;1700035;82;20125;-79
2022/03/12 12:34:04;;;;;;;;;;;;;;;8.58;40.41;102221.92;1674392;82;20154;-79
2022/03/12 12:36:30;;;;;;;;;;;;;;;8.61;39.39;102215.95;1699464;82;20402;-78
2022/03/12 12:39:11;;;;;;;;;;;;;;;8.63;39.71;102206.54;1696834;82;20235;-78
2022/03/12 12:41:58;;;;;;;;;;;;;;;8.64;39.46;102209.56;1689173;82;20137;-78
2022/03/12 12:44:42;;;;;;;;;;;;;;;8.65;39.43;102207.44;1702454;82;20129;-78
2022/03/12 12:47:18;;;;;;;;;;;;;;;8.70;39.94;102202.36;1693657;82;20245;-78